createdAt,value
2022-12-26T00:00:54.196Z,10.73
2022-12-26T00:03:22.389Z,10.66
2022-12-26T00:05:51.877Z,10.60
2022-12-26T00:08:19.976Z,10.72
2022-12-26T00:10:47.899Z,10.75
2022-12-26T00:13:38.242Z,10.72
2022-12-26T00:16:08.074Z,10.69
2022-12-26T00:18:36.032Z,10.60
2022-12-26T00:21:06.112Z,10.61
2022-12-26T00:23:34.140Z,10.66
2022-12-26T00:26:04.477Z,10.58
2022-12-26T00:28:32.745Z,10.65
2022-12-26T00:31:04.054Z,10.53
2022-12-26T00:33:32.110Z,10.58
2022-12-26T00:36:02.823Z,10.59
2022-12-26T00:38:32.481Z,10.52
2022-12-26T00:41:00.514Z,10.56
2022-12-26T00:43:28.520Z,10.55
2022-12-26T00:45:56.390Z,10.69
2022-12-26T00:48:25.620Z,10.50
2022-12-26T00:50:53.810Z,10.54
2022-12-26T00:53:22.336Z,10.42
2022-12-26T00:55:51.992Z,10.51
2022-12-26T00:58:20.385Z,10.46
2022-12-26T01:00:48.765Z,10.41
2022-12-26T01:03:17.595Z,10.37
2022-12-26T01:05:48.833Z,10.37
2022-12-26T01:08:20.027Z,10.40
2022-12-26T01:10:53.885Z,10.60
2022-12-26T01:13:22.271Z,10.46
2022-12-26T01:15:51.707Z,10.50
2022-12-26T01:18:19.751Z,10.50
2022-12-26T01:20:48.237Z,10.48
2022-12-26T01:23:16.550Z,10.53
2022-12-26T01:26:17.324Z,10.48
2022-12-26T01:28:34.543Z,10.58
2022-12-26T01:31:04.215Z,10.52
2022-12-26T01:33:32.671Z,10.44
2022-12-26T01:36:00.745Z,10.55
2022-12-26T01:38:29.372Z,10.45
2022-12-26T01:41:11.298Z,10.48
2022-12-26T01:43:52.842Z,10.49
2022-12-26T01:46:23.996Z,10.42
2022-12-26T01:48:53.371Z,10.48
2022-12-26T01:51:26.299Z,10.50
2022-12-26T01:54:40.248Z,10.46
2022-12-26T01:56:48.461Z,10.51
2022-12-26T01:59:22.060Z,10.53
2022-12-26T02:01:53.004Z,10.46
2022-12-26T02:04:47.550Z,10.47
2022-12-26T02:07:15.520Z,10.37
2022-12-26T02:09:43.892Z,10.39
2022-12-26T02:12:35.176Z,10.35
2022-12-26T02:15:11.434Z,10.29
2022-12-26T02:17:40.934Z,10.34
2022-12-26T02:20:19.360Z,10.31
2022-12-26T02:23:21.705Z,10.32
2022-12-26T02:26:21.433Z,10.43
2022-12-26T02:29:13.323Z,10.35
2022-12-26T02:31:53.447Z,10.44
2022-12-26T02:34:28.456Z,10.53
2022-12-26T02:37:16.151Z,10.56
2022-12-26T02:40:00.045Z,10.47
2022-12-26T02:42:38.608Z,10.50
2022-12-26T02:45:32.578Z,10.61
2022-12-26T02:48:08.923Z,10.49
2022-12-26T02:51:10.279Z,10.56
2022-12-26T02:54:03.751Z,10.64
2022-12-26T02:56:54.175Z,10.52
2022-12-26T02:59:55.614Z,10.58
2022-12-26T03:02:49.270Z,10.45
2022-12-26T03:05:41.418Z,10.66
2022-12-26T03:08:30.769Z,10.65
2022-12-26T03:11:17.460Z,10.67
2022-12-26T03:13:47.005Z,10.69
2022-12-26T03:16:34.790Z,10.55
2022-12-26T03:19:07.326Z,10.45
2022-12-26T03:21:41.554Z,10.45
2022-12-26T03:24:12.121Z,10.39
2022-12-26T03:26:47.606Z,10.44
2022-12-26T03:29:35.856Z,10.43
2022-12-26T03:32:06.513Z,10.62
2022-12-26T03:34:34.805Z,10.61
2022-12-26T03:37:47.959Z,10.39
2022-12-26T03:40:49.919Z,10.38
2022-12-26T03:43:50.251Z,10.36
2022-12-26T03:46:48.131Z,10.30
2022-12-26T03:49:38.858Z,10.35
2022-12-26T03:52:34.008Z,10.34
2022-12-26T03:55:26.332Z,10.33
2022-12-26T03:58:19.774Z,10.17
2022-12-26T04:01:19.568Z,10.18
2022-12-26T04:04:07.833Z,10.16
2022-12-26T04:07:03.631Z,10.19
2022-12-26T04:09:56.067Z,10.11
2022-12-26T04:12:45.176Z,10.03
2022-12-26T04:15:39.022Z,10.10
2022-12-26T04:18:29.199Z,10.05
2022-12-26T04:21:31.421Z,10.10
2022-12-26T04:24:20.873Z,9.97
2022-12-26T04:27:12.978Z,10.16
2022-12-26T04:29:58.703Z,10.02
2022-12-26T04:32:56.764Z,9.94
2022-12-26T04:35:49.135Z,10.11
2022-12-26T04:38:40.251Z,10.01
2022-12-26T04:41:27.934Z,10.17
2022-12-26T04:44:10.034Z,10.04
2022-12-26T04:46:40.344Z,10.14
2022-12-26T04:49:27.625Z,9.99
2022-12-26T04:51:57.284Z,9.87
2022-12-26T04:54:25.232Z,9.98
2022-12-26T04:56:53.669Z,9.97
2022-12-26T04:59:23.970Z,9.95
2022-12-26T05:02:09.716Z,10.05
2022-12-26T05:05:00.511Z,9.98
2022-12-26T05:07:48.599Z,9.89
2022-12-26T05:10:19.559Z,10.12
2022-12-26T05:12:47.784Z,9.97
2022-12-26T05:15:17.967Z,9.94
2022-12-26T05:18:03.407Z,9.98
2022-12-26T05:20:48.720Z,9.92
2022-12-26T05:23:40.115Z,9.95
2022-12-26T05:26:31.487Z,9.96
2022-12-26T05:29:01.392Z,10.03
2022-12-26T05:31:35.481Z,10.00
2022-12-26T05:34:06.488Z,10.07
2022-12-26T05:36:38.846Z,10.10
2022-12-26T05:39:07.362Z,10.12
2022-12-26T05:41:35.580Z,10.02
2022-12-26T05:44:03.638Z,10.01
2022-12-26T05:46:33.071Z,10.10
2022-12-26T05:49:01.363Z,10.27
2022-12-26T05:51:29.338Z,10.14
2022-12-26T05:53:57.253Z,10.08
2022-12-26T05:56:25.389Z,10.14
2022-12-26T05:58:56.065Z,10.19
2022-12-26T06:01:24.908Z,10.10
2022-12-26T06:03:56.501Z,10.04
2022-12-26T06:06:25.934Z,9.96
2022-12-26T06:08:56.593Z,10.02
2022-12-26T06:11:26.659Z,9.96
2022-12-26T06:13:55.441Z,10.03
2022-12-26T06:16:23.690Z,10.04
2022-12-26T06:18:52.502Z,10.00
2022-12-26T06:21:22.660Z,10.08
2022-12-26T06:23:51.431Z,9.95
2022-12-26T06:26:19.669Z,10.00
2022-12-26T06:28:47.889Z,9.88
2022-12-26T06:31:18.293Z,10.05
2022-12-26T06:33:46.378Z,10.00
2022-12-26T06:36:16.645Z,10.10
2022-12-26T06:38:46.253Z,10.07
2022-12-26T06:41:16.942Z,10.05
2022-12-26T06:43:45.559Z,9.98
2022-12-26T06:46:15.195Z,10.03
2022-12-26T06:48:43.243Z,9.93
2022-12-26T06:51:13.342Z,9.91
2022-12-26T06:53:41.428Z,9.81
2022-12-26T06:56:13.063Z,9.87
2022-12-26T06:58:41.464Z,9.89
2022-12-26T07:01:11.858Z,10.00
2022-12-26T07:03:46.603Z,10.28
2022-12-26T07:06:23.540Z,10.09
2022-12-26T07:08:52.034Z,10.10
2022-12-26T07:11:23.480Z,10.11
2022-12-26T07:13:51.866Z,10.02
2022-12-26T07:16:19.959Z,10.05
2022-12-26T07:18:48.323Z,10.18
2022-12-26T07:21:17.400Z,10.29
2022-12-26T07:23:45.812Z,10.15
2022-12-26T07:26:13.790Z,10.05
2022-12-26T07:28:43.320Z,10.00
2022-12-26T07:31:11.379Z,9.92
2022-12-26T07:33:39.461Z,9.97
2022-12-26T07:36:08.389Z,9.95
2022-12-26T07:38:36.465Z,10.07
2022-12-26T07:41:25.327Z,10.19
2022-12-26T07:43:54.772Z,10.09
2022-12-26T07:46:23.238Z,10.12
2022-12-26T07:48:51.354Z,10.18
2022-12-26T07:51:19.399Z,10.46
2022-12-26T07:53:48.524Z,10.40
2022-12-26T07:56:16.525Z,10.51
2022-12-26T07:58:44.485Z,10.51
2022-12-26T08:01:13.917Z,10.42
2022-12-26T08:03:42.058Z,10.46
2022-12-26T08:06:11.212Z,10.32
2022-12-26T08:08:42.831Z,10.63
2022-12-26T08:11:17.492Z,10.48
2022-12-26T08:13:45.645Z,10.41
2022-12-26T08:16:16.190Z,10.41
2022-12-26T08:18:44.253Z,10.43
2022-12-26T08:21:13.204Z,10.53
2022-12-26T08:23:41.497Z,10.51
2022-12-26T08:26:11.529Z,10.43
2022-12-26T08:28:43.218Z,10.32
2022-12-26T08:31:13.862Z,10.45
2022-12-26T08:33:43.326Z,10.57
2022-12-26T08:36:13.240Z,10.48
2022-12-26T08:38:42.085Z,10.37
2022-12-26T08:41:10.034Z,10.33
2022-12-26T08:44:25.656Z,10.41
2022-12-26T08:46:26.120Z,10.43
2022-12-26T08:48:55.346Z,10.48
2022-12-26T08:51:25.740Z,10.43
2022-12-26T08:53:56.130Z,10.53
2022-12-26T08:56:26.211Z,10.39
2022-12-26T08:58:54.674Z,10.41
2022-12-26T09:01:25.214Z,10.32
2022-12-26T09:03:55.984Z,10.57
2022-12-26T09:06:24.693Z,10.46
2022-12-26T09:08:52.689Z,10.50
2022-12-26T09:11:22.719Z,10.35
2022-12-26T09:13:51.835Z,10.63
2022-12-26T09:16:21.807Z,10.58
2022-12-26T09:18:53.923Z,10.48
2022-12-26T09:21:23.842Z,10.46
2022-12-26T09:23:51.962Z,10.54
2022-12-26T09:26:21.261Z,10.37
2022-12-26T09:28:49.552Z,10.55
2022-12-26T09:31:20.955Z,10.43
2022-12-26T09:33:49.179Z,10.44
2022-12-26T09:36:18.793Z,10.46
2022-12-26T09:38:49.927Z,10.58
2022-12-26T09:41:33.995Z,10.56
2022-12-26T09:44:08.785Z,10.66
2022-12-26T09:46:45.367Z,10.64
2022-12-26T09:49:17.756Z,10.68
2022-12-26T09:51:50.753Z,10.69
2022-12-26T09:54:32.850Z,10.72
2022-12-26T09:57:03.927Z,10.87
2022-12-26T09:59:38.792Z,10.69
2022-12-26T10:02:17.608Z,10.64
2022-12-26T10:04:45.946Z,10.78
2022-12-26T10:07:23.019Z,10.90
2022-12-26T10:10:09.199Z,10.89
2022-12-26T10:12:41.434Z,10.94
2022-12-26T10:15:31.659Z,11.11
2022-12-26T10:18:12.731Z,11.03
2022-12-26T10:20:55.432Z,10.94
2022-12-26T10:23:34.557Z,10.85
2022-12-26T10:26:10.650Z,11.04
2022-12-26T10:28:42.854Z,11.15
2022-12-26T10:31:19.221Z,10.89
2022-12-26T10:33:53.001Z,10.84
2022-12-26T10:36:30.691Z,10.97
2022-12-26T10:39:01.733Z,11.04
2022-12-26T10:41:36.591Z,10.96
2022-12-26T10:44:05.205Z,11.02
2022-12-26T10:46:49.834Z,11.06
2022-12-26T10:49:21.438Z,10.98
2022-12-26T10:51:50.834Z,10.87
2022-12-26T10:54:20.196Z,11.03
2022-12-26T10:56:52.969Z,11.11
2022-12-26T10:59:23.975Z,11.10
2022-12-26T11:01:52.049Z,11.03
2022-12-26T11:05:10.510Z,11.19
2022-12-26T11:07:13.751Z,11.29
2022-12-26T11:09:44.066Z,11.21
2022-12-26T11:12:22.464Z,11.05
2022-12-26T11:14:51.710Z,11.13
2022-12-26T11:17:27.862Z,11.15
2022-12-26T11:20:23.871Z,11.32
2022-12-26T11:22:52.609Z,11.42
2022-12-26T11:25:23.255Z,11.33
2022-12-26T11:27:54.351Z,11.22
2022-12-26T11:30:30.271Z,11.20
2022-12-26T11:33:19.424Z,11.20
2022-12-26T11:35:51.387Z,11.22
2022-12-26T11:38:44.041Z,11.24
2022-12-26T11:41:36.600Z,11.35
2022-12-26T11:44:27.086Z,11.41
2022-12-26T11:47:00.389Z,11.34
2022-12-26T11:49:33.293Z,11.22
2022-12-26T11:52:03.461Z,11.32
2022-12-26T11:54:35.214Z,11.35
2022-12-26T11:57:20.547Z,11.32
2022-12-26T11:59:51.137Z,11.32
2022-12-26T12:02:26.534Z,11.31
2022-12-26T12:04:58.314Z,11.30
2022-12-26T12:07:44.542Z,11.31
2022-12-26T12:10:35.582Z,11.55
2022-12-26T12:13:12.648Z,11.38
2022-12-26T12:15:47.174Z,11.43
2022-12-26T12:18:21.329Z,11.46
2022-12-26T12:21:04.804Z,11.40
2022-12-26T12:23:46.820Z,11.35
2022-12-26T12:26:19.453Z,11.35
2022-12-26T12:29:13.080Z,11.21
2022-12-26T12:31:52.102Z,11.03
2022-12-26T12:34:28.796Z,11.08
2022-12-26T12:37:12.809Z,10.88
2022-12-26T12:39:53.293Z,10.80
2022-12-26T12:42:34.162Z,10.23
2022-12-26T12:45:21.780Z,10.35
2022-12-26T12:48:09.064Z,10.34
2022-12-26T12:50:43.830Z,10.35
2022-12-26T12:53:23.060Z,10.04
2022-12-26T12:56:04.508Z,10.26
2022-12-26T12:58:41.940Z,9.99
2022-12-26T13:01:14.908Z,10.02
2022-12-26T13:03:51.190Z,10.40
2022-12-26T13:06:23.810Z,9.95
2022-12-26T13:08:55.767Z,9.75
2022-12-26T13:11:27.972Z,9.85
2022-12-26T13:14:00.379Z,9.76
2022-12-26T13:16:32.523Z,9.97
2022-12-26T13:19:04.299Z,9.87
2022-12-26T13:21:37.336Z,9.68
2022-12-26T13:24:24.249Z,9.65
2022-12-26T13:26:59.354Z,9.78
2022-12-26T13:29:36.963Z,9.63
2022-12-26T13:32:15.743Z,9.83
2022-12-26T13:34:46.107Z,9.57
2022-12-26T13:37:51.511Z,9.47
2022-12-26T13:40:22.313Z,9.60
2022-12-26T13:43:12.175Z,9.73
2022-12-26T13:45:49.867Z,9.56
2022-12-26T13:48:55.087Z,9.66
2022-12-26T13:51:48.516Z,9.69
2022-12-26T13:54:18.428Z,9.65
2022-12-26T13:57:34.407Z,9.69
2022-12-26T14:00:19.005Z,10.17
2022-12-26T14:03:19.768Z,9.49
2022-12-26T14:06:07.586Z,9.25
2022-12-26T14:08:52.969Z,9.15
2022-12-26T14:11:38.529Z,9.25
2022-12-26T14:14:18.410Z,8.83
2022-12-26T14:16:53.798Z,8.94
2022-12-26T14:19:38.569Z,8.84
2022-12-26T14:22:14.590Z,9.01
2022-12-26T14:25:00.765Z,9.00
2022-12-26T14:27:35.641Z,8.98
2022-12-26T14:30:20.764Z,9.00
2022-12-26T14:33:01.739Z,8.96
2022-12-26T14:35:35.084Z,8.88
2022-12-26T14:38:19.061Z,8.83
2022-12-26T14:41:02.770Z,8.91
2022-12-26T14:43:34.165Z,8.92
2022-12-26T14:46:03.611Z,8.98
2022-12-26T14:48:55.544Z,8.93
2022-12-26T14:51:40.200Z,8.65
2022-12-26T14:54:39.131Z,8.42
2022-12-26T14:57:43.314Z,8.73
2022-12-26T15:00:28.271Z,8.49
2022-12-26T15:03:38.225Z,8.37
2022-12-26T15:06:40.812Z,8.45
2022-12-26T15:09:33.807Z,8.65
2022-12-26T15:12:58.891Z,8.64
2022-12-26T15:15:34.352Z,8.63
2022-12-26T15:18:50.158Z,8.43
2022-12-26T15:21:50.423Z,8.46
2022-12-26T15:25:17.451Z,8.77
2022-12-26T15:27:46.181Z,8.35
2022-12-26T15:30:21.603Z,8.18
2022-12-26T15:33:01.638Z,8.33
2022-12-26T15:35:34.500Z,8.12
2022-12-26T15:38:26.948Z,8.30
2022-12-26T15:41:13.076Z,8.13
2022-12-26T15:44:01.969Z,8.25
2022-12-26T15:46:32.960Z,8.12
2022-12-26T15:49:24.179Z,8.24
2022-12-26T15:52:02.228Z,8.24
2022-12-26T15:54:59.890Z,8.33
2022-12-26T15:57:37.930Z,8.32
2022-12-26T16:00:17.707Z,8.08
2022-12-26T16:02:57.704Z,8.15
2022-12-26T16:05:46.296Z,7.93
2022-12-26T16:08:32.367Z,7.62
2022-12-26T16:11:16.342Z,7.62
2022-12-26T16:13:59.271Z,7.57
2022-12-26T16:16:38.572Z,7.62
2022-12-26T16:19:17.847Z,7.41
2022-12-26T16:22:10.551Z,7.51
2022-12-26T16:24:40.651Z,7.16
2022-12-26T16:27:10.644Z,7.09
2022-12-26T16:29:46.116Z,7.35
2022-12-26T16:32:19.508Z,7.22
2022-12-26T16:34:49.278Z,7.35
2022-12-26T16:37:21.362Z,7.51
2022-12-26T16:40:18.120Z,7.21
2022-12-26T16:42:56.238Z,7.06
2022-12-26T16:45:25.593Z,7.13
2022-12-26T16:47:55.138Z,7.09
2022-12-26T16:50:26.095Z,6.93
2022-12-26T16:53:12.221Z,7.04
2022-12-26T16:55:43.667Z,7.07
2022-12-26T16:58:22.875Z,6.89
2022-12-26T17:01:01.598Z,7.15
2022-12-26T17:03:39.548Z,7.14
2022-12-26T17:06:13.837Z,6.72
2022-12-26T17:08:46.556Z,6.77
2022-12-26T17:11:15.199Z,7.06
2022-12-26T17:13:55.013Z,6.76
2022-12-26T17:16:25.659Z,6.49
2022-12-26T17:18:54.839Z,6.65
2022-12-26T17:21:28.286Z,6.74
2022-12-26T17:24:13.307Z,6.62
2022-12-26T17:26:42.829Z,6.62
2022-12-26T17:29:44.066Z,6.69
2022-12-26T17:32:16.987Z,6.63
2022-12-26T17:34:45.452Z,6.77
2022-12-26T17:37:22.138Z,6.84
2022-12-26T17:40:04.209Z,6.64
2022-12-26T17:42:45.967Z,6.64
2022-12-26T17:45:18.168Z,6.56
2022-12-26T17:47:46.361Z,6.59
2022-12-26T17:50:14.735Z,6.50
2022-12-26T17:52:43.228Z,6.44
2022-12-26T17:55:18.244Z,6.23
2022-12-26T17:57:46.589Z,6.35
2022-12-26T18:00:19.799Z,6.23
2022-12-26T18:02:47.930Z,6.19
2022-12-26T18:05:16.780Z,6.31
2022-12-26T18:07:45.853Z,6.39
2022-12-26T18:10:20.019Z,6.35
2022-12-26T18:12:48.792Z,6.20
2022-12-26T18:15:17.814Z,6.19
2022-12-26T18:17:46.804Z,6.05
2022-12-26T18:20:18.520Z,6.15
2022-12-26T18:22:47.728Z,6.12
2022-12-26T18:25:19.759Z,6.16
2022-12-26T18:27:48.158Z,6.15
2022-12-26T18:30:22.354Z,6.28
2022-12-26T18:32:52.181Z,6.11
2022-12-26T18:35:22.469Z,5.90
2022-12-26T18:37:52.112Z,6.07
2022-12-26T18:40:34.478Z,5.82
2022-12-26T18:43:03.236Z,5.64
2022-12-26T18:45:31.609Z,5.74
2022-12-26T18:48:00.317Z,5.56
2022-12-26T18:50:29.600Z,5.96
2022-12-26T18:52:57.652Z,5.86
2022-12-26T18:55:26.785Z,5.56
2022-12-26T18:57:56.327Z,5.63
2022-12-26T19:00:25.399Z,5.57
2022-12-26T19:02:55.593Z,5.51
2022-12-26T19:05:26.203Z,5.63
2022-12-26T19:07:55.271Z,5.47
2022-12-26T19:10:26.591Z,5.53
2022-12-26T19:13:02.802Z,5.35
2022-12-26T19:15:33.651Z,5.32
2022-12-26T19:18:01.907Z,5.25
2022-12-26T19:20:29.988Z,5.40
2022-12-26T19:22:58.338Z,5.45
2022-12-26T19:25:26.840Z,5.31
2022-12-26T19:27:56.279Z,5.27
2022-12-26T19:30:24.308Z,5.28
2022-12-26T19:32:52.388Z,5.67
2022-12-26T19:35:21.175Z,5.58
2022-12-26T19:37:48.982Z,5.14
2022-12-26T19:40:22.912Z,5.29
2022-12-26T19:42:52.745Z,5.32
2022-12-26T19:45:22.401Z,5.28
2022-12-26T19:47:50.256Z,5.30
2022-12-26T19:50:18.229Z,5.42
2022-12-26T19:52:46.160Z,5.36
2022-12-26T19:55:14.462Z,5.09
2022-12-26T19:57:42.224Z,5.17
2022-12-26T20:00:12.108Z,5.03
2022-12-26T20:02:41.857Z,4.94
2022-12-26T20:05:10.764Z,5.03
2022-12-26T20:07:38.842Z,5.09
2022-12-26T20:10:07.504Z,5.12
2022-12-26T20:12:35.483Z,5.05
2022-12-26T20:15:03.533Z,5.29
2022-12-26T20:17:31.521Z,5.11
2022-12-26T20:20:00.927Z,5.09
2022-12-26T20:22:29.182Z,5.08
2022-12-26T20:24:57.065Z,4.96
2022-12-26T20:27:25.084Z,4.87
2022-12-26T20:29:52.955Z,4.88
2022-12-26T20:32:20.932Z,5.00
2022-12-26T20:34:48.985Z,5.05
2022-12-26T20:37:18.867Z,5.06
2022-12-26T20:39:46.806Z,5.03
2022-12-26T20:42:16.462Z,5.07
2022-12-26T20:44:44.432Z,4.99
2022-12-26T20:47:12.532Z,5.09
2022-12-26T20:49:40.319Z,5.09
2022-12-26T20:52:08.230Z,4.89
2022-12-26T20:54:37.617Z,4.80
2022-12-26T20:57:05.554Z,4.89
2022-12-26T20:59:33.478Z,4.92
2022-12-26T21:02:01.504Z,4.90
2022-12-26T21:04:29.523Z,5.23
2022-12-26T21:06:57.420Z,5.06
2022-12-26T21:09:25.338Z,4.95
2022-12-26T21:11:54.774Z,4.96
2022-12-26T21:14:23.769Z,4.96
2022-12-26T21:16:53.967Z,5.17
2022-12-26T21:19:22.907Z,5.01
2022-12-26T21:21:52.719Z,5.13
2022-12-26T21:24:23.220Z,5.18
2022-12-26T21:26:52.067Z,5.11
2022-12-26T21:29:24.658Z,5.14
2022-12-26T21:31:53.378Z,5.17
2022-12-26T21:34:23.583Z,5.25
2022-12-26T21:37:09.277Z,5.23
2022-12-26T21:39:38.678Z,5.12
2022-12-26T21:42:08.183Z,5.23
2022-12-26T21:44:37.993Z,5.06
2022-12-26T21:47:08.068Z,5.28
2022-12-26T21:49:36.199Z,5.14
2022-12-26T21:52:04.293Z,4.99
2022-12-26T21:54:51.481Z,5.04
2022-12-26T21:57:20.017Z,5.02
2022-12-26T21:59:58.982Z,5.11
2022-12-26T22:02:47.039Z,5.04
2022-12-26T22:05:15.682Z,4.90
2022-12-26T22:07:43.774Z,5.06
2022-12-26T22:10:33.543Z,4.92
2022-12-26T22:13:01.359Z,5.08
2022-12-26T22:15:48.073Z,5.14
2022-12-26T22:18:15.987Z,5.12
2022-12-26T22:20:44.931Z,4.90
2022-12-26T22:23:13.306Z,5.20
2022-12-26T22:25:41.332Z,4.86
2022-12-26T22:28:09.205Z,5.00
2022-12-26T22:30:38.406Z,4.88
2022-12-26T22:33:06.244Z,4.91
2022-12-26T22:35:34.375Z,4.95
2022-12-26T22:38:02.417Z,4.94
2022-12-26T22:40:30.471Z,5.01
2022-12-26T22:42:58.313Z,4.78
2022-12-26T22:45:26.306Z,4.81
2022-12-26T22:47:55.702Z,4.90
2022-12-26T22:50:23.858Z,5.06
2022-12-26T22:52:52.304Z,4.80
2022-12-26T22:55:20.156Z,4.84
2022-12-26T22:57:51.169Z,5.10
2022-12-26T23:00:20.286Z,4.76
2022-12-26T23:02:48.266Z,4.88
2022-12-26T23:05:18.545Z,4.89
2022-12-26T23:07:47.154Z,4.98
2022-12-26T23:10:20.314Z,4.85
2022-12-26T23:12:49.043Z,4.63
2022-12-26T23:15:20.258Z,4.97
2022-12-26T23:18:10.102Z,4.80
2022-12-26T23:20:58.187Z,4.71
2022-12-26T23:23:26.947Z,4.76
2022-12-26T23:25:55.143Z,4.67
2022-12-26T23:28:40.519Z,4.70
2022-12-26T23:31:08.776Z,4.88
2022-12-26T23:33:36.686Z,4.85
2022-12-26T23:36:07.342Z,4.62
2022-12-26T23:38:35.238Z,4.62
2022-12-26T23:41:03.341Z,4.63
2022-12-26T23:43:33.460Z,4.60
2022-12-26T23:46:01.444Z,4.50
2022-12-26T23:48:29.304Z,4.60
2022-12-26T23:51:06.881Z,4.71
2022-12-26T23:53:35.224Z,4.57
2022-12-26T23:56:03.686Z,4.67
2022-12-26T23:58:31.812Z,4.72
